createdAt,value
2023-02-17T00:00:21.320Z,0.95
2023-02-17T00:02:48.276Z,0.98
2023-02-17T00:05:15.294Z,0.93
2023-02-17T00:07:42.537Z,1.54
2023-02-17T00:10:09.632Z,1.38
2023-02-17T00:12:36.975Z,1.38
2023-02-17T00:15:04.200Z,1.60
2023-02-17T00:17:31.173Z,1.44
2023-02-17T00:19:58.234Z,1.85
2023-02-17T00:22:25.669Z,1.41
2023-02-17T00:24:52.511Z,1.38
2023-02-17T00:27:19.738Z,1.32
2023-02-17T00:29:46.716Z,1.08
2023-02-17T00:32:13.865Z,1.05
2023-02-17T00:34:41.117Z,1.08
2023-02-17T00:37:08.057Z,1.17
2023-02-17T00:39:34.941Z,0.96
2023-02-17T00:42:01.889Z,0.92
2023-02-17T00:47:16.004Z,0.55
2023-02-17T00:49:45.930Z,0.31
2023-02-17T00:52:12.796Z,0.40
2023-02-17T00:54:40.943Z,0.46
2023-02-17T00:57:11.219Z,0.78
2023-02-17T00:59:40.292Z,0.77
2023-02-17T01:02:07.531Z,0.83
2023-02-17T01:04:34.427Z,0.80
2023-02-17T01:07:01.384Z,0.19
2023-02-17T01:09:28.231Z,0.53
2023-02-17T01:11:55.400Z,0.34
2023-02-17T01:14:22.259Z,0.05
2023-02-17T01:16:49.814Z,0.25
2023-02-17T01:19:19.316Z,0.42
2023-02-17T01:21:46.550Z,0.44
2023-02-17T01:24:14.091Z,0.15
2023-02-17T01:26:41.601Z,0.14
2023-02-17T01:29:08.996Z,0.04
2023-02-17T01:31:36.325Z,-0.02
2023-02-17T01:34:04.639Z,-0.22
2023-02-17T01:36:31.776Z,-0.10
2023-02-17T01:38:58.895Z,0.08
2023-02-17T01:41:27.946Z,0.19
2023-02-17T01:44:25.146Z,-0.23
2023-02-17T01:46:54.244Z,-0.27
2023-02-17T01:49:24.498Z,-0.09
2023-02-17T01:51:57.537Z,-0.12
2023-02-17T01:54:34.229Z,0.23
2023-02-17T01:57:02.444Z,-0.02
2023-02-17T01:59:30.843Z,0.27
2023-02-17T02:02:01.123Z,0.20
2023-02-17T02:04:32.407Z,-0.21
2023-02-17T02:07:01.129Z,0.06
2023-02-17T02:09:41.301Z,0.59
2023-02-17T02:12:25.823Z,0.05
2023-02-17T02:14:56.148Z,0.11
2023-02-17T02:17:54.665Z,-0.14
2023-02-17T02:20:31.008Z,0.03
2023-02-17T02:23:29.036Z,0.25
2023-02-17T02:26:17.506Z,-0.16
2023-02-17T02:29:02.272Z,-0.18
2023-02-17T02:31:36.301Z,0.02
2023-02-17T02:34:18.266Z,0.06
2023-02-17T02:37:03.975Z,-0.32
2023-02-17T02:39:36.828Z,-0.34
2023-02-17T02:42:08.845Z,-0.30
2023-02-17T02:44:35.692Z,-0.78
2023-02-17T02:47:24.318Z,-0.48
2023-02-17T02:49:51.231Z,-0.38
2023-02-17T02:52:33.828Z,-0.23
2023-02-17T02:55:36.059Z,-0.41
2023-02-17T02:58:26.558Z,-0.26
2023-02-17T03:01:03.955Z,-0.52
2023-02-17T03:03:49.016Z,-0.33
2023-02-17T03:06:22.701Z,-0.38
2023-02-17T03:08:56.723Z,-0.51
2023-02-17T03:11:33.500Z,-0.97
2023-02-17T03:14:07.042Z,-0.88
2023-02-17T03:16:35.971Z,-0.81
2023-02-17T03:19:03.263Z,-0.76
2023-02-17T03:21:37.662Z,-1.10
2023-02-17T03:24:04.955Z,-0.86
2023-02-17T03:26:31.759Z,-0.16
2023-02-17T03:28:58.856Z,-0.70
2023-02-17T03:31:25.968Z,-0.95
2023-02-17T03:33:52.883Z,-1.02
2023-02-17T03:36:19.836Z,-0.42
2023-02-17T03:38:46.568Z,-0.83
2023-02-17T03:41:13.410Z,-0.91
2023-02-17T03:43:41.268Z,-0.77
2023-02-17T03:46:14.613Z,-0.26
2023-02-17T03:48:42.194Z,-0.47
2023-02-17T03:51:19.852Z,-0.87
2023-02-17T03:53:47.527Z,-0.68
2023-02-17T03:56:15.122Z,-0.81
2023-02-17T03:58:42.412Z,-0.93
2023-02-17T04:01:12.197Z,-0.41
2023-02-17T04:03:39.908Z,-0.07
2023-02-17T04:06:08.016Z,-0.76
2023-02-17T04:08:35.273Z,-0.07
2023-02-17T04:11:04.335Z,-0.14
2023-02-17T04:13:32.027Z,-0.94
2023-02-17T04:15:59.513Z,-1.16
2023-02-17T04:18:26.592Z,-1.14
2023-02-17T04:20:54.584Z,-0.89
2023-02-17T04:23:21.667Z,-1.22
2023-02-17T04:25:49.034Z,-0.59
2023-02-17T04:28:16.571Z,-0.09
2023-02-17T04:30:45.914Z,0.03
2023-02-17T04:33:13.397Z,-0.30
2023-02-17T04:35:40.802Z,-0.51
2023-02-17T04:38:08.825Z,-0.48
2023-02-17T04:40:35.605Z,-0.56
2023-02-17T04:43:02.788Z,-0.51
2023-02-17T04:45:30.749Z,-0.31
2023-02-17T04:47:57.540Z,-0.94
2023-02-17T04:50:24.480Z,-0.50
2023-02-17T04:52:51.611Z,-0.95
2023-02-17T04:55:18.522Z,-0.77
2023-02-17T04:57:45.531Z,-0.65
2023-02-17T05:00:22.118Z,-0.91
2023-02-17T05:02:49.033Z,-0.66
2023-02-17T05:05:16.156Z,-0.74
2023-02-17T05:07:43.680Z,-0.56
2023-02-17T05:10:11.053Z,-0.75
2023-02-17T05:12:38.029Z,-0.97
2023-02-17T05:15:05.846Z,-0.87
2023-02-17T05:17:33.380Z,-0.91
2023-02-17T05:20:00.441Z,-0.47
2023-02-17T05:22:28.127Z,-0.87
2023-02-17T05:24:54.988Z,-1.26
2023-02-17T05:27:22.059Z,-1.29
2023-02-17T05:29:49.290Z,-0.97
2023-02-17T05:32:16.129Z,-1.20
2023-02-17T05:34:42.890Z,-1.59
2023-02-17T05:37:12.641Z,-1.23
2023-02-17T05:39:39.597Z,-0.90
2023-02-17T05:42:06.472Z,-0.32
2023-02-17T05:44:37.617Z,-0.41
2023-02-17T05:47:04.924Z,-0.57
2023-02-17T05:49:33.934Z,-0.77
2023-02-17T05:52:04.024Z,-0.67
2023-02-17T05:54:31.049Z,-1.12
2023-02-17T05:56:57.869Z,-0.99
2023-02-17T05:59:24.868Z,-0.93
2023-02-17T06:01:51.774Z,-0.63
2023-02-17T06:04:18.926Z,-0.66
2023-02-17T06:06:45.904Z,-0.56
2023-02-17T06:09:12.726Z,0.22
2023-02-17T06:11:39.551Z,0.33
2023-02-17T06:14:06.476Z,-0.20
2023-02-17T06:16:33.446Z,0.30
2023-02-17T06:19:02.569Z,0.70
2023-02-17T06:21:29.507Z,0.62
2023-02-17T06:23:56.298Z,-0.37
2023-02-17T06:26:23.258Z,-0.63
2023-02-17T06:28:50.160Z,-0.44
2023-02-17T06:31:17.078Z,-0.47
2023-02-17T06:33:44.014Z,-0.05
2023-02-17T06:36:11.035Z,0.66
2023-02-17T06:38:37.875Z,0.60
2023-02-17T06:41:04.977Z,1.61
2023-02-17T06:43:31.932Z,2.22
2023-02-17T06:45:58.740Z,3.38
2023-02-17T06:48:25.691Z,3.32
2023-02-17T06:50:52.668Z,2.57
2023-02-17T06:53:19.426Z,3.70
2023-02-17T06:55:46.570Z,3.26
2023-02-17T06:58:13.322Z,2.12
2023-02-17T07:00:40.104Z,1.92
2023-02-17T07:03:06.982Z,3.65
2023-02-17T07:05:37.870Z,3.29
2023-02-17T07:08:05.090Z,2.02
2023-02-17T07:10:32.780Z,2.18
2023-02-17T07:12:59.737Z,3.40
2023-02-17T07:15:26.544Z,2.99
2023-02-17T07:17:53.617Z,2.95
2023-02-17T07:20:20.509Z,1.92
2023-02-17T07:22:47.375Z,1.93
2023-02-17T07:25:14.297Z,2.17
2023-02-17T07:27:41.905Z,1.76
2023-02-17T07:30:09.270Z,1.66
2023-02-17T07:32:36.387Z,2.03
2023-02-17T07:35:03.422Z,2.12
2023-02-17T07:37:30.303Z,2.96
2023-02-17T07:39:59.774Z,2.35
2023-02-17T07:42:29.905Z,2.32
2023-02-17T07:44:56.818Z,3.06
2023-02-17T07:47:23.887Z,2.74
2023-02-17T07:49:51.121Z,2.84
2023-02-17T07:52:18.829Z,2.92
2023-02-17T07:54:45.835Z,2.96
2023-02-17T07:57:12.586Z,3.08
2023-02-17T07:59:39.473Z,3.07
2023-02-17T08:02:06.479Z,3.12
2023-02-17T08:04:33.639Z,2.80
2023-02-17T08:07:00.514Z,2.99
2023-02-17T08:09:45.726Z,3.32
2023-02-17T08:12:36.399Z,3.52
2023-02-17T08:15:05.133Z,3.59
2023-02-17T08:17:32.108Z,3.53
2023-02-17T08:20:01.968Z,3.89
2023-02-17T08:22:30.981Z,4.49
2023-02-17T08:24:58.215Z,4.45
2023-02-17T08:27:25.222Z,3.85
2023-02-17T08:29:52.388Z,3.88
2023-02-17T08:32:21.003Z,4.59
2023-02-17T08:34:47.761Z,4.25
2023-02-17T08:37:14.770Z,4.88
2023-02-17T08:39:41.862Z,5.03
2023-02-17T08:42:08.808Z,4.23
2023-02-17T08:44:37.807Z,5.50
2023-02-17T08:47:06.288Z,5.48
2023-02-17T08:49:33.467Z,5.30
2023-02-17T08:52:01.308Z,4.91
2023-02-17T08:54:28.595Z,5.41
2023-02-17T08:56:55.855Z,5.28
2023-02-17T08:59:23.090Z,4.76
2023-02-17T09:01:51.164Z,5.21
2023-02-17T09:04:18.910Z,4.96
2023-02-17T09:06:48.962Z,4.40
2023-02-17T09:09:19.261Z,4.47
2023-02-17T09:11:46.692Z,5.29
2023-02-17T09:14:13.856Z,5.15
2023-02-17T09:16:41.848Z,5.38
2023-02-17T09:19:09.235Z,5.95
2023-02-17T09:21:36.899Z,5.84
2023-02-17T09:24:04.001Z,5.59
2023-02-17T09:26:33.318Z,5.39
2023-02-17T09:29:01.634Z,6.06
2023-02-17T09:31:29.904Z,6.81
2023-02-17T09:33:58.968Z,6.95
2023-02-17T09:36:29.379Z,6.08
2023-02-17T09:38:56.880Z,6.69
2023-02-17T09:41:38.267Z,6.71
2023-02-17T09:44:10.777Z,6.67
2023-02-17T09:46:59.722Z,6.79
2023-02-17T09:49:35.357Z,6.84
2023-02-17T09:52:42.805Z,8.18
2023-02-17T09:55:25.321Z,7.52
2023-02-17T09:57:58.943Z,7.52
2023-02-17T10:00:33.674Z,7.26
2023-02-17T10:03:19.241Z,7.73
2023-02-17T10:05:53.488Z,7.55
2023-02-17T10:08:29.496Z,7.82
2023-02-17T10:11:14.195Z,8.64
2023-02-17T10:13:43.118Z,8.39
2023-02-17T10:16:20.600Z,8.74
2023-02-17T10:18:55.893Z,8.78
2023-02-17T10:21:29.864Z,8.94
2023-02-17T10:23:59.808Z,8.79
2023-02-17T10:26:49.594Z,9.30
2023-02-17T10:29:41.800Z,8.96
2023-02-17T10:32:19.485Z,9.28
2023-02-17T10:35:16.647Z,9.79
2023-02-17T10:37:56.774Z,9.73
2023-02-17T10:40:27.355Z,9.82
2023-02-17T10:42:58.855Z,9.67
2023-02-17T10:45:45.864Z,9.91
2023-02-17T10:48:16.512Z,10.06
2023-02-17T10:50:44.629Z,10.28
2023-02-17T10:53:25.580Z,10.47
2023-02-17T10:56:10.995Z,11.07
2023-02-17T10:58:43.966Z,10.76
2023-02-17T11:01:12.109Z,10.98
2023-02-17T11:03:43.410Z,10.62
2023-02-17T11:06:20.108Z,10.84
2023-02-17T11:08:51.024Z,10.95
2023-02-17T11:11:30.836Z,10.40
2023-02-17T11:14:07.392Z,10.73
2023-02-17T11:16:46.329Z,10.93
2023-02-17T11:19:27.050Z,11.27
2023-02-17T11:21:57.490Z,11.21
2023-02-17T11:24:25.269Z,11.21
2023-02-17T11:27:04.667Z,11.51
2023-02-17T11:29:33.370Z,11.33
2023-02-17T11:32:07.870Z,11.49
2023-02-17T11:34:38.697Z,11.05
2023-02-17T11:37:16.801Z,11.75
2023-02-17T11:39:49.867Z,11.86
2023-02-17T11:42:23.348Z,12.04
2023-02-17T11:44:53.797Z,11.95
2023-02-17T11:47:42.203Z,12.33
2023-02-17T11:50:14.923Z,12.37
2023-02-17T11:53:04.678Z,12.16
2023-02-17T11:55:59.573Z,12.38
2023-02-17T11:58:26.967Z,12.53
2023-02-17T12:01:45.156Z,12.63
2023-02-17T12:04:31.739Z,12.63
2023-02-17T12:07:17.412Z,12.71
2023-02-17T12:09:45.018Z,12.75
2023-02-17T12:12:21.679Z,12.66
2023-02-17T12:15:03.846Z,13.18
2023-02-17T12:17:52.029Z,13.06
2023-02-17T12:20:58.776Z,13.27
2023-02-17T12:23:44.140Z,13.53
2023-02-17T12:26:17.545Z,13.60
2023-02-17T12:29:28.802Z,13.27
2023-02-17T12:32:19.168Z,13.30
2023-02-17T12:35:16.450Z,13.42
2023-02-17T12:37:51.251Z,13.34
2023-02-17T12:40:39.687Z,13.46
2023-02-17T12:43:19.538Z,13.42
2023-02-17T12:45:49.257Z,13.44
2023-02-17T12:48:28.674Z,13.65
2023-02-17T12:51:11.500Z,13.82
2023-02-17T12:53:48.201Z,13.75
2023-02-17T12:56:31.699Z,13.71
2023-02-17T12:59:24.923Z,13.87
2023-02-17T13:02:12.037Z,13.98
2023-02-17T13:04:40.931Z,14.06
2023-02-17T13:07:35.984Z,14.23
2023-02-17T13:10:03.982Z,13.93
2023-02-17T13:12:40.573Z,14.12
2023-02-17T13:15:27.463Z,14.18
2023-02-17T13:18:02.430Z,14.22
2023-02-17T13:20:51.656Z,13.99
2023-02-17T13:23:37.893Z,14.25
2023-02-17T13:26:27.015Z,14.33
2023-02-17T13:29:06.686Z,14.14
2023-02-17T13:31:45.928Z,14.32
2023-02-17T13:34:28.426Z,14.32
2023-02-17T13:36:56.056Z,14.24
2023-02-17T13:39:28.981Z,14.22
2023-02-17T13:41:59.097Z,14.15
2023-02-17T13:44:40.204Z,13.98
2023-02-17T13:47:45.277Z,14.10
2023-02-17T13:50:35.186Z,14.24
2023-02-17T13:53:04.036Z,14.18
2023-02-17T13:55:30.817Z,14.29
2023-02-17T13:57:59.507Z,14.13
2023-02-17T14:00:29.144Z,14.31
2023-02-17T14:03:22.281Z,14.21
2023-02-17T14:05:51.721Z,14.19
2023-02-17T14:08:40.637Z,14.58
2023-02-17T14:11:20.150Z,14.59
2023-02-17T14:13:49.673Z,14.40
2023-02-17T14:16:37.522Z,14.50
2023-02-17T14:19:16.473Z,14.28
2023-02-17T14:21:46.638Z,14.11
2023-02-17T14:24:25.349Z,14.16
2023-02-17T14:27:01.276Z,14.02
2023-02-17T14:29:42.598Z,14.04
2023-02-17T14:32:31.799Z,14.07
2023-02-17T14:35:11.940Z,14.16
2023-02-17T14:37:40.612Z,13.98
2023-02-17T14:40:18.679Z,13.97
2023-02-17T14:42:47.048Z,13.97
2023-02-17T14:45:15.947Z,13.82
2023-02-17T14:47:43.379Z,13.85
2023-02-17T14:50:32.335Z,13.93
2023-02-17T14:52:59.304Z,13.97
2023-02-17T14:55:36.856Z,13.77
2023-02-17T14:58:04.056Z,13.79
2023-02-17T15:00:31.427Z,13.65
2023-02-17T15:02:58.692Z,13.66
2023-02-17T15:05:28.478Z,13.76
2023-02-17T15:07:55.354Z,13.72
2023-02-17T15:10:26.315Z,13.78
2023-02-17T15:12:53.255Z,13.86
2023-02-17T15:15:20.842Z,13.82
2023-02-17T15:17:47.989Z,13.64
2023-02-17T15:20:19.540Z,13.71
2023-02-17T15:22:47.176Z,13.61
2023-02-17T15:25:19.785Z,13.41
2023-02-17T15:27:46.990Z,13.52
2023-02-17T15:30:19.245Z,13.37
2023-02-17T15:32:46.712Z,13.49
2023-02-17T15:35:26.251Z,13.31
2023-02-17T15:37:54.160Z,13.03
2023-02-17T15:40:23.877Z,12.94
2023-02-17T15:42:55.678Z,12.58
2023-02-17T15:45:24.368Z,12.35
2023-02-17T15:47:55.636Z,12.34
2023-02-17T15:50:23.430Z,12.13
2023-02-17T15:52:51.426Z,11.97
2023-02-17T15:55:19.962Z,11.80
2023-02-17T15:57:51.610Z,11.54
2023-02-17T16:00:23.249Z,11.35
2023-02-17T16:02:50.552Z,11.38
2023-02-17T16:05:20.211Z,11.21
2023-02-17T16:07:47.201Z,11.01
2023-02-17T16:10:17.093Z,10.55
2023-02-17T16:12:44.733Z,10.54
2023-02-17T16:15:17.647Z,10.64
2023-02-17T16:21:18.530Z,10.57
2023-02-17T16:54:13.119Z,9.08
2023-02-17T16:56:48.102Z,9.20
2023-02-17T17:00:20.209Z,9.01
2023-02-17T17:02:32.745Z,9.02
2023-02-17T17:13:25.928Z,8.79
2023-02-17T17:24:09.901Z,8.81
2023-02-17T17:26:45.546Z,8.83
2023-02-17T17:29:15.841Z,8.96
2023-02-17T17:31:50.353Z,8.75
2023-02-17T17:34:17.803Z,8.78
2023-02-17T18:09:04.480Z,7.70
2023-02-17T18:11:34.209Z,7.60
2023-02-17T18:14:09.443Z,7.49
2023-02-17T18:19:54.534Z,7.45
2023-02-17T18:22:22.802Z,7.43
2023-02-17T18:24:53.044Z,7.45
2023-02-17T18:32:44.836Z,7.09
2023-02-17T18:38:00.594Z,7.25
2023-02-17T18:40:29.379Z,7.13
2023-02-17T18:43:02.214Z,7.07
2023-02-17T18:45:29.035Z,7.04
2023-02-17T18:47:56.240Z,7.03
2023-02-17T18:51:22.208Z,6.81
2023-02-17T19:00:52.993Z,6.78
2023-02-17T19:03:29.084Z,6.74
2023-02-17T19:05:57.542Z,6.79
2023-02-17T19:08:31.628Z,6.89
2023-02-17T19:10:59.981Z,6.92
2023-02-17T19:16:11.484Z,6.78
2023-02-17T19:18:48.916Z,6.80
2023-02-17T19:23:15.208Z,6.47
2023-02-17T19:28:51.117Z,6.17
2023-02-17T19:31:20.191Z,6.07
2023-02-17T19:33:51.522Z,6.03
2023-02-17T19:36:23.540Z,6.39
2023-02-17T19:38:52.016Z,6.45
2023-02-17T19:41:22.021Z,6.35
2023-02-17T19:43:49.854Z,6.42
2023-02-17T19:46:20.603Z,6.35
2023-02-17T19:48:47.751Z,6.07
2023-02-17T19:51:14.676Z,7.05
2023-02-17T19:53:46.293Z,5.83
2023-02-17T19:56:18.883Z,6.13
2023-02-17T19:58:47.851Z,5.91
2023-02-17T20:01:17.223Z,6.11
2023-02-17T20:03:44.805Z,6.18
2023-02-17T20:06:17.373Z,6.03
2023-02-17T20:08:46.362Z,6.08
2023-02-17T20:11:14.814Z,6.24
2023-02-17T20:13:46.756Z,6.08
2023-02-17T20:16:15.762Z,5.90
2023-02-17T20:18:46.272Z,5.67
2023-02-17T20:21:19.791Z,5.61
2023-02-17T20:28:56.594Z,5.49
2023-02-17T20:31:09.795Z,5.51
2023-02-17T20:33:28.820Z,5.28
2023-02-17T20:35:56.008Z,5.26
2023-02-17T20:38:22.885Z,5.56
2023-02-17T20:40:49.957Z,5.64
2023-02-17T20:43:17.113Z,5.36
2023-02-17T20:45:44.791Z,5.16
2023-02-17T20:48:20.030Z,5.09
2023-02-17T20:50:47.659Z,5.63
2023-02-17T20:53:14.845Z,5.80
2023-02-17T20:55:42.235Z,5.84
2023-02-17T20:58:11.664Z,5.83
2023-02-17T21:00:40.698Z,5.15
2023-02-17T21:03:14.516Z,5.05
2023-02-17T21:05:42.169Z,4.62
2023-02-17T21:08:10.421Z,4.95
2023-02-17T21:10:40.188Z,4.44
2023-02-17T21:13:08.351Z,4.81
2023-02-17T21:15:38.403Z,5.06
2023-02-17T21:18:21.872Z,4.78
2023-02-17T21:23:31.259Z,4.26
2023-02-17T21:25:58.743Z,4.18
2023-02-17T21:28:51.891Z,4.29
2023-02-17T21:31:19.755Z,4.12
2023-02-17T21:34:36.905Z,3.91
2023-02-17T21:37:51.204Z,4.09
2023-02-17T21:43:50.679Z,3.95
2023-02-17T21:46:31.305Z,3.81
2023-02-17T21:49:56.337Z,3.78
